sensor_id;sensor_type;location;lat;lon;timestamp;P1;durP1;ratioP1;P2;durP2;ratioP2
54539;SDS011;40438;52.992;18.604;2022-08-19T00:02:19;17.80;;;11.90;;
54539;SDS011;40438;52.992;18.604;2022-08-19T00:04:46;15.57;;;11.70;;
54539;SDS011;40438;52.992;18.604;2022-08-19T00:07:12;17.58;;;12.63;;
54539;SDS011;40438;52.992;18.604;2022-08-19T00:09:38;17.20;;;11.50;;
54539;SDS011;40438;52.992;18.604;2022-08-19T00:12:04;16.90;;;12.50;;
54539;SDS011;40438;52.992;18.604;2022-08-19T00:14:30;19.80;;;11.68;;
54539;SDS011;40438;52.992;18.604;2022-08-19T00:16:56;18.73;;;12.95;;
54539;SDS011;40438;52.992;18.604;2022-08-19T00:19:22;17.00;;;11.95;;
54539;SDS011;40438;52.992;18.604;2022-08-19T00:21:49;24.02;;;11.80;;
54539;SDS011;40438;52.992;18.604;2022-08-19T00:24:16;18.63;;;12.43;;
54539;SDS011;40438;52.992;18.604;2022-08-19T00:26:42;16.65;;;11.82;;
54539;SDS011;40438;52.992;18.604;2022-08-19T00:29:10;15.35;;;12.43;;
54539;SDS011;40438;52.992;18.604;2022-08-19T00:31:37;14.65;;;11.85;;
54539;SDS011;40438;52.992;18.604;2022-08-19T00:34:03;16.65;;;12.20;;
54539;SDS011;40438;52.992;18.604;2022-08-19T00:36:29;23.80;;;12.05;;
54539;SDS011;40438;52.992;18.604;2022-08-19T00:38:56;20.25;;;12.63;;
54539;SDS011;40438;52.992;18.604;2022-08-19T00:41:22;19.60;;;12.10;;
54539;SDS011;40438;52.992;18.604;2022-08-19T00:43:59;18.95;;;12.18;;
54539;SDS011;40438;52.992;18.604;2022-08-19T00:46:26;18.63;;;11.68;;
54539;SDS011;40438;52.992;18.604;2022-08-19T00:48:52;19.42;;;12.68;;
54539;SDS011;40438;52.992;18.604;2022-08-19T00:51:18;19.92;;;11.85;;
54539;SDS011;40438;52.992;18.604;2022-08-19T00:53:44;18.65;;;11.75;;
54539;SDS011;40438;52.992;18.604;2022-08-19T00:56:12;19.33;;;11.88;;
54539;SDS011;40438;52.992;18.604;2022-08-19T00:58:37;20.60;;;13.15;;
54539;SDS011;40438;52.992;18.604;2022-08-19T01:01:03;18.95;;;12.25;;
54539;SDS011;40438;52.992;18.604;2022-08-19T01:03:30;18.70;;;12.52;;
54539;SDS011;40438;52.992;18.604;2022-08-19T01:05:55;18.45;;;12.27;;
54539;SDS011;40438;52.992;18.604;2022-08-19T01:08:21;21.45;;;12.73;;
54539;SDS011;40438;52.992;18.604;2022-08-19T01:10:48;20.98;;;12.10;;
54539;SDS011;40438;52.992;18.604;2022-08-19T01:13:19;20.50;;;12.75;;
54539;SDS011;40438;52.992;18.604;2022-08-19T01:15:47;20.20;;;12.93;;
54539;SDS011;40438;52.992;18.604;2022-08-19T01:18:17;18.15;;;12.15;;
54539;SDS011;40438;52.992;18.604;2022-08-19T01:20:44;17.88;;;12.25;;
54539;SDS011;40438;52.992;18.604;2022-08-19T01:23:12;17.15;;;12.90;;
54539;SDS011;40438;52.992;18.604;2022-08-19T01:25:40;20.38;;;12.77;;
54539;SDS011;40438;52.992;18.604;2022-08-19T01:28:14;18.15;;;12.45;;
54539;SDS011;40438;52.992;18.604;2022-08-19T01:30:41;19.70;;;12.88;;
54539;SDS011;40438;52.992;18.604;2022-08-19T01:33:06;16.88;;;12.18;;
54539;SDS011;40438;52.992;18.604;2022-08-19T01:35:32;18.60;;;12.30;;
54539;SDS011;40438;52.992;18.604;2022-08-19T01:38:00;26.83;;;12.57;;
54539;SDS011;40438;52.992;18.604;2022-08-19T01:40:30;21.80;;;11.95;;
54539;SDS011;40438;52.992;18.604;2022-08-19T01:42:57;19.60;;;11.60;;
54539;SDS011;40438;52.992;18.604;2022-08-19T01:45:23;18.35;;;11.75;;
54539;SDS011;40438;52.992;18.604;2022-08-19T01:47:51;16.40;;;11.82;;
54539;SDS011;40438;52.992;18.604;2022-08-19T01:50:17;18.40;;;12.63;;
54539;SDS011;40438;52.992;18.604;2022-08-19T01:52:43;20.05;;;12.52;;
54539;SDS011;40438;52.992;18.604;2022-08-19T01:55:12;15.80;;;11.75;;
54539;SDS011;40438;52.992;18.604;2022-08-19T01:57:41;18.40;;;12.85;;
54539;SDS011;40438;52.992;18.604;2022-08-19T02:00:12;16.25;;;12.20;;
54539;SDS011;40438;52.992;18.604;2022-08-19T02:02:39;15.68;;;12.35;;
54539;SDS011;40438;52.992;18.604;2022-08-19T02:05:05;19.27;;;12.32;;
54539;SDS011;40438;52.992;18.604;2022-08-19T02:07:31;24.23;;;14.98;;
54539;SDS011;40438;52.992;18.604;2022-08-19T02:09:57;16.23;;;12.57;;
54539;SDS011;40438;52.992;18.604;2022-08-19T02:12:23;18.10;;;11.60;;
54539;SDS011;40438;52.992;18.604;2022-08-19T02:14:50;20.25;;;11.82;;
54539;SDS011;40438;52.992;18.604;2022-08-19T02:17:16;18.20;;;12.32;;
54539;SDS011;40438;52.992;18.604;2022-08-19T02:19:41;18.75;;;12.35;;
54539;SDS011;40438;52.992;18.604;2022-08-19T02:22:07;15.35;;;12.75;;
54539;SDS011;40438;52.992;18.604;2022-08-19T02:24:33;18.33;;;11.90;;
54539;SDS011;40438;52.992;18.604;2022-08-19T02:26:58;15.93;;;11.55;;
54539;SDS011;40438;52.992;18.604;2022-08-19T02:29:24;19.25;;;11.48;;
54539;SDS011;40438;52.992;18.604;2022-08-19T02:31:51;19.42;;;13.55;;
54539;SDS011;40438;52.992;18.604;2022-08-19T02:34:17;16.70;;;12.05;;
54539;SDS011;40438;52.992;18.604;2022-08-19T02:36:43;16.88;;;12.70;;
54539;SDS011;40438;52.992;18.604;2022-08-19T02:39:08;17.23;;;12.40;;
54539;SDS011;40438;52.992;18.604;2022-08-19T02:41:34;23.88;;;13.52;;
54539;SDS011;40438;52.992;18.604;2022-08-19T02:44:01;19.42;;;12.25;;
54539;SDS011;40438;52.992;18.604;2022-08-19T02:46:29;19.45;;;12.25;;
54539;SDS011;40438;52.992;18.604;2022-08-19T02:48:59;17.73;;;11.95;;
54539;SDS011;40438;52.992;18.604;2022-08-19T02:51:27;18.73;;;12.90;;
54539;SDS011;40438;52.992;18.604;2022-08-19T02:53:55;18.15;;;11.68;;
54539;SDS011;40438;52.992;18.604;2022-08-19T02:56:22;21.20;;;13.23;;
54539;SDS011;40438;52.992;18.604;2022-08-19T02:58:48;25.23;;;13.07;;
54539;SDS011;40438;52.992;18.604;2022-08-19T03:01:19;17.20;;;12.70;;
54539;SDS011;40438;52.992;18.604;2022-08-19T03:03:46;16.00;;;12.25;;
54539;SDS011;40438;52.992;18.604;2022-08-19T03:06:14;16.95;;;12.02;;
54539;SDS011;40438;52.992;18.604;2022-08-19T03:08:41;18.98;;;13.13;;
54539;SDS011;40438;52.992;18.604;2022-08-19T03:11:12;19.33;;;11.85;;
54539;SDS011;40438;52.992;18.604;2022-08-19T03:13:39;16.77;;;12.32;;
54539;SDS011;40438;52.992;18.604;2022-08-19T03:16:05;19.85;;;12.55;;
54539;SDS011;40438;52.992;18.604;2022-08-19T03:18:31;19.30;;;14.07;;
54539;SDS011;40438;52.992;18.604;2022-08-19T03:20:57;17.58;;;12.55;;
54539;SDS011;40438;52.992;18.604;2022-08-19T03:23:24;17.67;;;12.50;;
54539;SDS011;40438;52.992;18.604;2022-08-19T03:25:50;19.10;;;12.95;;
54539;SDS011;40438;52.992;18.604;2022-08-19T03:28:17;19.33;;;11.70;;
54539;SDS011;40438;52.992;18.604;2022-08-19T03:30:53;19.85;;;12.48;;
54539;SDS011;40438;52.992;18.604;2022-08-19T03:33:21;19.58;;;12.73;;
54539;SDS011;40438;52.992;18.604;2022-08-19T03:35:47;20.50;;;12.75;;
54539;SDS011;40438;52.992;18.604;2022-08-19T03:38:12;21.02;;;12.82;;
54539;SDS011;40438;52.992;18.604;2022-08-19T03:40:40;17.77;;;12.00;;
54539;SDS011;40438;52.992;18.604;2022-08-19T03:43:05;16.65;;;12.27;;
54539;SDS011;40438;52.992;18.604;2022-08-19T03:45:31;17.00;;;11.45;;
54539;SDS011;40438;52.992;18.604;2022-08-19T03:47:57;20.60;;;12.45;;
54539;SDS011;40438;52.992;18.604;2022-08-19T03:50:22;19.02;;;13.55;;
54539;SDS011;40438;52.992;18.604;2022-08-19T03:52:48;19.23;;;12.50;;
54539;SDS011;40438;52.992;18.604;2022-08-19T03:55:14;22.75;;;12.93;;
54539;SDS011;40438;52.992;18.604;2022-08-19T03:57:42;19.48;;;12.93;;
54539;SDS011;40438;52.992;18.604;2022-08-19T04:00:08;20.35;;;12.40;;
54539;SDS011;40438;52.992;18.604;2022-08-19T04:02:34;16.80;;;12.02;;
54539;SDS011;40438;52.992;18.604;2022-08-19T04:05:00;17.33;;;11.75;;
54539;SDS011;40438;52.992;18.604;2022-08-19T04:07:26;20.60;;;12.05;;
54539;SDS011;40438;52.992;18.604;2022-08-19T04:09:52;19.35;;;13.00;;
54539;SDS011;40438;52.992;18.604;2022-08-19T04:12:17;23.60;;;12.10;;
54539;SDS011;40438;52.992;18.604;2022-08-19T04:14:44;16.58;;;11.95;;
54539;SDS011;40438;52.992;18.604;2022-08-19T04:17:10;15.15;;;11.18;;
54539;SDS011;40438;52.992;18.604;2022-08-19T04:19:36;21.42;;;12.50;;
54539;SDS011;40438;52.992;18.604;2022-08-19T04:22:02;18.50;;;12.38;;
54539;SDS011;40438;52.992;18.604;2022-08-19T04:24:28;14.70;;;11.90;;
54539;SDS011;40438;52.992;18.604;2022-08-19T04:26:54;19.15;;;12.27;;
54539;SDS011;40438;52.992;18.604;2022-08-19T04:29:20;17.77;;;12.80;;
54539;SDS011;40438;52.992;18.604;2022-08-19T04:31:49;21.50;;;12.65;;
54539;SDS011;40438;52.992;18.604;2022-08-19T04:34:16;19.63;;;11.93;;
54539;SDS011;40438;52.992;18.604;2022-08-19T04:36:44;17.63;;;12.45;;
54539;SDS011;40438;52.992;18.604;2022-08-19T04:39:10;13.65;;;10.88;;
54539;SDS011;40438;52.992;18.604;2022-08-19T04:41:38;17.33;;;11.73;;
54539;SDS011;40438;52.992;18.604;2022-08-19T04:44:03;21.88;;;13.70;;
54539;SDS011;40438;52.992;18.604;2022-08-19T04:46:29;22.27;;;13.65;;
54539;SDS011;40438;52.992;18.604;2022-08-19T04:48:57;20.00;;;12.82;;
54539;SDS011;40438;52.992;18.604;2022-08-19T04:51:23;18.85;;;12.88;;
54539;SDS011;40438;52.992;18.604;2022-08-19T04:53:49;19.35;;;12.02;;
54539;SDS011;40438;52.992;18.604;2022-08-19T04:56:16;18.60;;;12.18;;
54539;SDS011;40438;52.992;18.604;2022-08-19T04:58:43;16.38;;;11.50;;
54539;SDS011;40438;52.992;18.604;2022-08-19T05:01:11;19.55;;;11.93;;
54539;SDS011;40438;52.992;18.604;2022-08-19T05:03:37;14.73;;;11.25;;
54539;SDS011;40438;52.992;18.604;2022-08-19T05:06:05;17.38;;;11.13;;
54539;SDS011;40438;52.992;18.604;2022-08-19T05:08:32;16.17;;;11.82;;
54539;SDS011;40438;52.992;18.604;2022-08-19T05:10:59;17.95;;;11.88;;
54539;SDS011;40438;52.992;18.604;2022-08-19T05:13:25;18.35;;;11.23;;
54539;SDS011;40438;52.992;18.604;2022-08-19T05:15:53;15.02;;;11.55;;
54539;SDS011;40438;52.992;18.604;2022-08-19T05:18:20;22.77;;;12.82;;
54539;SDS011;40438;52.992;18.604;2022-08-19T05:20:45;19.27;;;11.57;;
54539;SDS011;40438;52.992;18.604;2022-08-19T05:23:12;24.58;;;11.98;;
54539;SDS011;40438;52.992;18.604;2022-08-19T05:25:38;19.83;;;11.82;;
54539;SDS011;40438;52.992;18.604;2022-08-19T05:28:04;14.75;;;10.63;;
54539;SDS011;40438;52.992;18.604;2022-08-19T05:30:30;16.20;;;10.70;;
54539;SDS011;40438;52.992;18.604;2022-08-19T05:32:56;15.38;;;10.45;;
54539;SDS011;40438;52.992;18.604;2022-08-19T05:35:22;14.85;;;10.32;;
54539;SDS011;40438;52.992;18.604;2022-08-19T05:37:47;17.75;;;10.73;;
54539;SDS011;40438;52.992;18.604;2022-08-19T05:40:14;14.18;;;10.35;;
54539;SDS011;40438;52.992;18.604;2022-08-19T05:42:40;15.98;;;10.60;;
54539;SDS011;40438;52.992;18.604;2022-08-19T05:45:06;12.68;;;10.25;;
54539;SDS011;40438;52.992;18.604;2022-08-19T05:47:33;14.07;;;10.70;;
54539;SDS011;40438;52.992;18.604;2022-08-19T05:49:59;16.02;;;10.65;;
54539;SDS011;40438;52.992;18.604;2022-08-19T05:52:25;14.52;;;10.23;;
54539;SDS011;40438;52.992;18.604;2022-08-19T05:54:50;14.38;;;9.73;;
54539;SDS011;40438;52.992;18.604;2022-08-19T05:57:17;15.35;;;10.63;;
54539;SDS011;40438;52.992;18.604;2022-08-19T05:59:43;16.23;;;10.23;;
54539;SDS011;40438;52.992;18.604;2022-08-19T06:02:09;18.23;;;10.73;;
54539;SDS011;40438;52.992;18.604;2022-08-19T06:04:35;15.75;;;10.10;;
54539;SDS011;40438;52.992;18.604;2022-08-19T06:07:00;17.73;;;10.07;;
54539;SDS011;40438;52.992;18.604;2022-08-19T06:09:26;16.73;;;10.98;;
54539;SDS011;40438;52.992;18.604;2022-08-19T06:11:53;14.23;;;9.70;;
54539;SDS011;40438;52.992;18.604;2022-08-19T06:14:22;14.73;;;9.57;;
54539;SDS011;40438;52.992;18.604;2022-08-19T06:16:49;16.45;;;10.15;;
54539;SDS011;40438;52.992;18.604;2022-08-19T06:19:16;14.63;;;9.63;;
54539;SDS011;40438;52.992;18.604;2022-08-19T06:21:44;18.17;;;10.25;;
54539;SDS011;40438;52.992;18.604;2022-08-19T06:24:11;21.13;;;10.75;;
54539;SDS011;40438;52.992;18.604;2022-08-19T06:26:40;13.35;;;9.77;;
54539;SDS011;40438;52.992;18.604;2022-08-19T06:29:08;15.27;;;9.98;;
54539;SDS011;40438;52.992;18.604;2022-08-19T06:31:40;12.43;;;9.77;;
54539;SDS011;40438;52.992;18.604;2022-08-19T06:34:08;13.70;;;9.88;;
54539;SDS011;40438;52.992;18.604;2022-08-19T06:36:35;11.75;;;9.52;;
54539;SDS011;40438;52.992;18.604;2022-08-19T06:39:03;14.07;;;9.30;;
54539;SDS011;40438;52.992;18.604;2022-08-19T06:41:30;11.40;;;8.98;;
54539;SDS011;40438;52.992;18.604;2022-08-19T06:43:56;16.52;;;9.68;;
54539;SDS011;40438;52.992;18.604;2022-08-19T06:46:22;14.77;;;9.23;;
54539;SDS011;40438;52.992;18.604;2022-08-19T06:48:49;11.98;;;9.27;;
54539;SDS011;40438;52.992;18.604;2022-08-19T06:51:16;10.88;;;8.73;;
54539;SDS011;40438;52.992;18.604;2022-08-19T06:53:42;11.52;;;9.25;;
54539;SDS011;40438;52.992;18.604;2022-08-19T06:56:08;11.82;;;8.05;;
54539;SDS011;40438;52.992;18.604;2022-08-19T06:58:33;16.65;;;8.40;;
54539;SDS011;40438;52.992;18.604;2022-08-19T07:01:00;10.23;;;8.18;;
54539;SDS011;40438;52.992;18.604;2022-08-19T07:03:28;12.30;;;8.13;;
54539;SDS011;40438;52.992;18.604;2022-08-19T07:05:57;14.93;;;8.85;;
54539;SDS011;40438;52.992;18.604;2022-08-19T07:08:23;15.23;;;8.25;;
54539;SDS011;40438;52.992;18.604;2022-08-19T07:10:48;11.52;;;7.68;;
54539;SDS011;40438;52.992;18.604;2022-08-19T07:13:14;10.98;;;7.70;;
54539;SDS011;40438;52.992;18.604;2022-08-19T07:15:40;13.82;;;7.63;;
54539;SDS011;40438;52.992;18.604;2022-08-19T07:18:05;12.02;;;7.78;;
54539;SDS011;40438;52.992;18.604;2022-08-19T07:20:31;11.85;;;8.10;;
54539;SDS011;40438;52.992;18.604;2022-08-19T07:22:58;10.43;;;7.20;;
54539;SDS011;40438;52.992;18.604;2022-08-19T07:25:24;12.73;;;7.97;;
54539;SDS011;40438;52.992;18.604;2022-08-19T07:27:50;10.63;;;8.32;;
54539;SDS011;40438;52.992;18.604;2022-08-19T07:30:15;10.95;;;7.55;;
54539;SDS011;40438;52.992;18.604;2022-08-19T07:32:41;15.43;;;8.05;;
54539;SDS011;40438;52.992;18.604;2022-08-19T07:35:07;14.82;;;7.80;;
54539;SDS011;40438;52.992;18.604;2022-08-19T07:37:34;10.40;;;7.28;;
54539;SDS011;40438;52.992;18.604;2022-08-19T07:40:01;10.05;;;7.65;;
54539;SDS011;40438;52.992;18.604;2022-08-19T07:42:27;11.40;;;7.45;;
54539;SDS011;40438;52.992;18.604;2022-08-19T07:44:52;11.75;;;7.60;;
54539;SDS011;40438;52.992;18.604;2022-08-19T07:47:18;10.43;;;7.30;;
54539;SDS011;40438;52.992;18.604;2022-08-19T07:49:44;9.38;;;6.70;;
54539;SDS011;40438;52.992;18.604;2022-08-19T07:52:10;13.07;;;7.57;;
54539;SDS011;40438;52.992;18.604;2022-08-19T07:54:37;8.30;;;7.40;;
54539;SDS011;40438;52.992;18.604;2022-08-19T07:57:05;9.85;;;7.20;;
54539;SDS011;40438;52.992;18.604;2022-08-19T07:59:32;16.48;;;6.82;;
54539;SDS011;40438;52.992;18.604;2022-08-19T08:01:58;9.90;;;6.75;;
54539;SDS011;40438;52.992;18.604;2022-08-19T08:04:24;11.20;;;7.38;;
54539;SDS011;40438;52.992;18.604;2022-08-19T08:06:49;13.48;;;6.72;;
54539;SDS011;40438;52.992;18.604;2022-08-19T08:09:16;11.25;;;7.03;;
54539;SDS011;40438;52.992;18.604;2022-08-19T08:11:44;15.48;;;7.40;;
54539;SDS011;40438;52.992;18.604;2022-08-19T08:14:12;12.57;;;6.85;;
54539;SDS011;40438;52.992;18.604;2022-08-19T08:16:38;9.20;;;6.80;;
54539;SDS011;40438;52.992;18.604;2022-08-19T08:19:04;11.57;;;7.53;;
54539;SDS011;40438;52.992;18.604;2022-08-19T08:21:30;8.45;;;7.25;;
54539;SDS011;40438;52.992;18.604;2022-08-19T08:23:56;11.70;;;6.65;;
54539;SDS011;40438;52.992;18.604;2022-08-19T08:26:22;11.68;;;6.93;;
54539;SDS011;40438;52.992;18.604;2022-08-19T08:28:48;7.57;;;6.70;;
54539;SDS011;40438;52.992;18.604;2022-08-19T08:31:15;10.57;;;7.30;;
54539;SDS011;40438;52.992;18.604;2022-08-19T08:33:41;14.48;;;7.10;;
54539;SDS011;40438;52.992;18.604;2022-08-19T08:36:06;9.30;;;5.97;;
54539;SDS011;40438;52.992;18.604;2022-08-19T08:38:33;13.90;;;6.32;;
54539;SDS011;40438;52.992;18.604;2022-08-19T08:41:01;8.02;;;6.35;;
54539;SDS011;40438;52.992;18.604;2022-08-19T08:43:35;11.45;;;6.90;;
54539;SDS011;40438;52.992;18.604;2022-08-19T08:46:04;11.18;;;6.43;;
54539;SDS011;40438;52.992;18.604;2022-08-19T08:48:39;11.48;;;6.30;;
54539;SDS011;40438;52.992;18.604;2022-08-19T08:51:14;10.20;;;5.93;;
54539;SDS011;40438;52.992;18.604;2022-08-19T08:53:43;10.63;;;6.03;;
54539;SDS011;40438;52.992;18.604;2022-08-19T08:56:11;8.77;;;6.53;;
54539;SDS011;40438;52.992;18.604;2022-08-19T08:58:41;7.97;;;6.18;;
54539;SDS011;40438;52.992;18.604;2022-08-19T09:01:14;8.50;;;6.15;;
54539;SDS011;40438;52.992;18.604;2022-08-19T09:03:41;10.40;;;6.13;;
54539;SDS011;40438;52.992;18.604;2022-08-19T09:06:11;9.23;;;6.35;;
54539;SDS011;40438;52.992;18.604;2022-08-19T09:08:45;10.90;;;6.43;;
54539;SDS011;40438;52.992;18.604;2022-08-19T09:11:15;10.45;;;6.80;;
54539;SDS011;40438;52.992;18.604;2022-08-19T09:13:47;7.53;;;6.07;;
54539;SDS011;40438;52.992;18.604;2022-08-19T09:16:22;11.27;;;7.55;;
54539;SDS011;40438;52.992;18.604;2022-08-19T09:18:50;8.80;;;6.38;;
54539;SDS011;40438;52.992;18.604;2022-08-19T09:21:18;11.30;;;6.90;;
54539;SDS011;40438;52.992;18.604;2022-08-19T09:23:44;10.30;;;6.50;;
54539;SDS011;40438;52.992;18.604;2022-08-19T09:26:10;11.60;;;6.57;;
54539;SDS011;40438;52.992;18.604;2022-08-19T09:28:37;10.05;;;6.63;;
54539;SDS011;40438;52.992;18.604;2022-08-19T09:31:03;8.45;;;7.03;;
54539;SDS011;40438;52.992;18.604;2022-08-19T09:33:29;11.63;;;6.93;;
54539;SDS011;40438;52.992;18.604;2022-08-19T09:36:02;10.57;;;6.90;;
54539;SDS011;40438;52.992;18.604;2022-08-19T09:38:29;15.45;;;7.13;;
54539;SDS011;40438;52.992;18.604;2022-08-19T09:40:55;12.82;;;7.75;;
54539;SDS011;40438;52.992;18.604;2022-08-19T09:43:21;11.68;;;7.05;;
54539;SDS011;40438;52.992;18.604;2022-08-19T09:45:46;8.38;;;7.13;;
54539;SDS011;40438;52.992;18.604;2022-08-19T09:48:12;8.80;;;6.97;;
54539;SDS011;40438;52.992;18.604;2022-08-19T09:50:38;8.68;;;7.55;;
54539;SDS011;40438;52.992;18.604;2022-08-19T09:53:05;10.23;;;6.88;;
54539;SDS011;40438;52.992;18.604;2022-08-19T09:55:31;14.27;;;7.28;;
54539;SDS011;40438;52.992;18.604;2022-08-19T09:57:56;8.45;;;6.70;;
54539;SDS011;40438;52.992;18.604;2022-08-19T10:00:22;10.90;;;7.38;;
54539;SDS011;40438;52.992;18.604;2022-08-19T10:02:48;10.85;;;6.22;;
54539;SDS011;40438;52.992;18.604;2022-08-19T10:05:13;8.85;;;7.35;;
54539;SDS011;40438;52.992;18.604;2022-08-19T10:07:39;15.82;;;7.43;;
54539;SDS011;40438;52.992;18.604;2022-08-19T10:10:07;12.82;;;8.77;;
54539;SDS011;40438;52.992;18.604;2022-08-19T10:12:33;10.45;;;6.88;;
54539;SDS011;40438;52.992;18.604;2022-08-19T10:14:59;13.93;;;8.13;;
54539;SDS011;40438;52.992;18.604;2022-08-19T10:17:25;10.18;;;7.22;;
54539;SDS011;40438;52.992;18.604;2022-08-19T10:19:51;10.70;;;7.10;;
54539;SDS011;40438;52.992;18.604;2022-08-19T10:22:17;8.15;;;7.35;;
54539;SDS011;40438;52.992;18.604;2022-08-19T10:24:44;9.80;;;7.53;;
54539;SDS011;40438;52.992;18.604;2022-08-19T10:27:12;12.15;;;6.90;;
54539;SDS011;40438;52.992;18.604;2022-08-19T10:29:38;8.48;;;6.82;;
54539;SDS011;40438;52.992;18.604;2022-08-19T10:32:04;14.70;;;7.78;;
54539;SDS011;40438;52.992;18.604;2022-08-19T10:34:33;13.32;;;7.65;;
54539;SDS011;40438;52.992;18.604;2022-08-19T10:37:01;12.98;;;7.15;;
54539;SDS011;40438;52.992;18.604;2022-08-19T10:39:27;7.65;;;6.70;;
54539;SDS011;40438;52.992;18.604;2022-08-19T10:41:53;10.63;;;7.00;;
54539;SDS011;40438;52.992;18.604;2022-08-19T10:44:21;10.48;;;6.95;;
54539;SDS011;40438;52.992;18.604;2022-08-19T10:46:46;10.00;;;6.70;;
54539;SDS011;40438;52.992;18.604;2022-08-19T10:49:12;11.38;;;7.00;;
54539;SDS011;40438;52.992;18.604;2022-08-19T10:51:38;9.15;;;7.03;;
54539;SDS011;40438;52.992;18.604;2022-08-19T10:54:05;10.65;;;6.82;;
54539;SDS011;40438;52.992;18.604;2022-08-19T10:56:32;10.85;;;6.30;;
54539;SDS011;40438;52.992;18.604;2022-08-19T10:58:58;9.77;;;6.85;;
54539;SDS011;40438;52.992;18.604;2022-08-19T11:01:26;9.45;;;7.15;;
54539;SDS011;40438;52.992;18.604;2022-08-19T11:03:52;8.57;;;7.03;;
54539;SDS011;40438;52.992;18.604;2022-08-19T11:06:18;10.38;;;6.95;;
54539;SDS011;40438;52.992;18.604;2022-08-19T11:08:44;10.38;;;6.22;;
54539;SDS011;40438;52.992;18.604;2022-08-19T11:11:10;10.93;;;6.95;;
54539;SDS011;40438;52.992;18.604;2022-08-19T11:13:38;9.52;;;7.53;;
54539;SDS011;40438;52.992;18.604;2022-08-19T11:16:08;13.27;;;7.93;;
54539;SDS011;40438;52.992;18.604;2022-08-19T11:18:37;8.93;;;6.72;;
54539;SDS011;40438;52.992;18.604;2022-08-19T11:21:05;13.00;;;7.45;;
54539;SDS011;40438;52.992;18.604;2022-08-19T11:23:32;10.82;;;6.70;;
54539;SDS011;40438;52.992;18.604;2022-08-19T11:25:57;9.98;;;7.18;;
54539;SDS011;40438;52.992;18.604;2022-08-19T11:28:23;12.05;;;7.38;;
54539;SDS011;40438;52.992;18.604;2022-08-19T11:30:49;11.88;;;6.88;;
54539;SDS011;40438;52.992;18.604;2022-08-19T11:33:14;14.93;;;7.70;;
54539;SDS011;40438;52.992;18.604;2022-08-19T11:35:41;10.63;;;6.60;;
54539;SDS011;40438;52.992;18.604;2022-08-19T11:38:07;9.45;;;7.30;;
54539;SDS011;40438;52.992;18.604;2022-08-19T11:40:33;7.30;;;6.50;;
54539;SDS011;40438;52.992;18.604;2022-08-19T11:42:58;9.48;;;6.80;;
54539;SDS011;40438;52.992;18.604;2022-08-19T11:45:25;10.63;;;6.78;;
54539;SDS011;40438;52.992;18.604;2022-08-19T11:47:52;9.63;;;6.25;;
54539;SDS011;40438;52.992;18.604;2022-08-19T11:50:18;10.77;;;6.28;;
54539;SDS011;40438;52.992;18.604;2022-08-19T11:52:45;16.00;;;6.78;;
54539;SDS011;40438;52.992;18.604;2022-08-19T11:55:11;11.13;;;6.38;;
54539;SDS011;40438;52.992;18.604;2022-08-19T11:57:37;9.98;;;6.40;;
54539;SDS011;40438;52.992;18.604;2022-08-19T12:00:03;9.27;;;6.43;;
54539;SDS011;40438;52.992;18.604;2022-08-19T12:02:30;14.43;;;6.30;;
54539;SDS011;40438;52.992;18.604;2022-08-19T12:04:55;6.20;;;5.60;;
54539;SDS011;40438;52.992;18.604;2022-08-19T12:07:21;7.25;;;6.47;;
54539;SDS011;40438;52.992;18.604;2022-08-19T12:09:48;10.48;;;5.78;;
54539;SDS011;40438;52.992;18.604;2022-08-19T12:12:14;18.60;;;12.18;;
54539;SDS011;40438;52.992;18.604;2022-08-19T12:14:40;12.93;;;9.25;;
54539;SDS011;40438;52.992;18.604;2022-08-19T12:17:06;10.38;;;6.25;;
54539;SDS011;40438;52.992;18.604;2022-08-19T12:19:32;10.43;;;6.90;;
54539;SDS011;40438;52.992;18.604;2022-08-19T12:21:59;9.05;;;6.00;;
54539;SDS011;40438;52.992;18.604;2022-08-19T12:24:25;12.07;;;6.75;;
54539;SDS011;40438;52.992;18.604;2022-08-19T12:26:52;7.75;;;5.97;;
54539;SDS011;40438;52.992;18.604;2022-08-19T12:29:18;8.57;;;6.30;;
54539;SDS011;40438;52.992;18.604;2022-08-19T12:31:44;11.25;;;6.50;;
54539;SDS011;40438;52.992;18.604;2022-08-19T12:34:09;7.82;;;6.45;;
54539;SDS011;40438;52.992;18.604;2022-08-19T12:36:36;9.35;;;6.20;;
54539;SDS011;40438;52.992;18.604;2022-08-19T12:39:02;8.13;;;6.75;;
54539;SDS011;40438;52.992;18.604;2022-08-19T12:41:28;9.25;;;6.55;;
54539;SDS011;40438;52.992;18.604;2022-08-19T12:43:55;14.82;;;6.18;;
54539;SDS011;40438;52.992;18.604;2022-08-19T12:46:20;9.02;;;5.90;;
54539;SDS011;40438;52.992;18.604;2022-08-19T12:48:46;10.60;;;6.93;;
54539;SDS011;40438;52.992;18.604;2022-08-19T12:51:13;7.38;;;6.30;;
54539;SDS011;40438;52.992;18.604;2022-08-19T12:53:40;7.75;;;6.15;;
54539;SDS011;40438;52.992;18.604;2022-08-19T12:56:07;11.98;;;6.32;;
54539;SDS011;40438;52.992;18.604;2022-08-19T12:58:33;9.90;;;6.18;;
54539;SDS011;40438;52.992;18.604;2022-08-19T13:01:00;10.43;;;6.53;;
54539;SDS011;40438;52.992;18.604;2022-08-19T13:03:31;14.38;;;6.50;;
54539;SDS011;40438;52.992;18.604;2022-08-19T13:05:57;16.02;;;6.50;;
54539;SDS011;40438;52.992;18.604;2022-08-19T13:08:23;13.07;;;6.18;;
54539;SDS011;40438;52.992;18.604;2022-08-19T13:10:49;8.75;;;6.60;;
54539;SDS011;40438;52.992;18.604;2022-08-19T13:13:14;12.23;;;6.07;;
54539;SDS011;40438;52.992;18.604;2022-08-19T13:15:41;14.70;;;6.82;;
54539;SDS011;40438;52.992;18.604;2022-08-19T13:18:09;13.05;;;6.03;;
54539;SDS011;40438;52.992;18.604;2022-08-19T13:20:36;12.85;;;7.20;;
54539;SDS011;40438;52.992;18.604;2022-08-19T13:23:02;10.38;;;6.93;;
54539;SDS011;40438;52.992;18.604;2022-08-19T13:25:28;10.82;;;6.47;;
54539;SDS011;40438;52.992;18.604;2022-08-19T13:27:54;12.80;;;6.93;;
54539;SDS011;40438;52.992;18.604;2022-08-19T13:30:20;17.58;;;6.82;;
54539;SDS011;40438;52.992;18.604;2022-08-19T13:32:46;10.48;;;6.43;;
54539;SDS011;40438;52.992;18.604;2022-08-19T13:35:13;15.43;;;6.82;;
54539;SDS011;40438;52.992;18.604;2022-08-19T13:37:39;12.52;;;6.25;;
54539;SDS011;40438;52.992;18.604;2022-08-19T13:40:05;9.77;;;6.45;;
54539;SDS011;40438;52.992;18.604;2022-08-19T13:42:32;11.63;;;7.15;;
54539;SDS011;40438;52.992;18.604;2022-08-19T13:44:57;11.60;;;6.60;;
54539;SDS011;40438;52.992;18.604;2022-08-19T13:47:23;12.18;;;6.25;;
54539;SDS011;40438;52.992;18.604;2022-08-19T13:49:49;11.88;;;6.47;;
54539;SDS011;40438;52.992;18.604;2022-08-19T13:52:16;8.68;;;6.78;;
54539;SDS011;40438;52.992;18.604;2022-08-19T13:54:42;11.18;;;6.95;;
54539;SDS011;40438;52.992;18.604;2022-08-19T13:57:08;10.73;;;6.18;;
54539;SDS011;40438;52.992;18.604;2022-08-19T13:59:33;11.82;;;6.13;;
54539;SDS011;40438;52.992;18.604;2022-08-19T14:01:59;8.48;;;6.25;;
54539;SDS011;40438;52.992;18.604;2022-08-19T14:04:25;12.38;;;6.38;;
54539;SDS011;40438;52.992;18.604;2022-08-19T14:06:51;14.65;;;6.50;;
54539;SDS011;40438;52.992;18.604;2022-08-19T14:09:18;9.38;;;6.53;;
54539;SDS011;40438;52.992;18.604;2022-08-19T14:11:44;19.13;;;7.15;;
54539;SDS011;40438;52.992;18.604;2022-08-19T14:14:09;12.05;;;6.30;;
54539;SDS011;40438;52.992;18.604;2022-08-19T14:16:35;9.68;;;7.00;;